Time;durP1;ratioP1;P1;durP2;ratioP2;P2;SDS_P1;SDS_P2;PMS_P1;PMS_P2;Temp;Humidity;BMP_temperature;BMP_pressure;BME280_temperature;BME280_humidity;BME280_pressure;Samples;Min_cycle;Max_cycle;Signal;HPM_P1;HPM_P2
2022/03/29 00:03:01;;;;;;;;;;;;;;;7.85;67.91;98843.63;8395112;28;19927;-69
2022/03/29 00:07:02;;;;;;;;;;;;;;;7.86;67.94;98839.84;8358355;28;19920;-69
2022/03/29 00:11:03;;;;;;;;;;;;;;;7.85;68.28;98847.09;8395456;28;20384;-71
2022/03/29 00:15:05;;;;;;;;;;;;;;;7.88;68.17;98849.19;8395042;28;19920;-69
2022/03/29 00:19:06;;;;;;;;;;;;;;;7.96;67.75;98845.81;8394967;28;19921;-70
2022/03/29 00:23:06;;;;;;;;;;;;;;;7.99;68.11;98845.22;8386119;28;19925;-70
2022/03/29 00:27:07;;;;;;;;;;;;;;;7.89;68.37;98840.03;8364388;28;19959;-70
2022/03/29 00:31:09;;;;;;;;;;;;;;;7.84;68.14;98842.81;8370521;28;19962;-70
2022/03/29 00:35:10;;;;;;;;;;;;;;;7.78;67.83;98833.25;8379534;28;19932;-71
2022/03/29 00:39:10;;;;;;;;;;;;;;;7.60;68.07;98826.06;8373657;28;19924;-70
2022/03/29 00:43:11;;;;;;;;;;;;;;;7.39;68.48;98835.56;8409032;28;19943;-70
2022/03/29 00:47:12;;;;;;;;;;;;;;;7.28;68.67;98839.50;8369177;28;19924;-70
2022/03/29 00:51:13;;;;;;;;;;;;;;;7.14;68.70;98840.22;8372058;28;20363;-70
2022/03/29 00:55:14;;;;;;;;;;;;;;;7.15;68.82;98835.66;8415278;28;19921;-70
2022/03/29 00:59:14;;;;;;;;;;;;;;;7.13;68.89;98833.28;8363632;28;19927;-69
2022/03/29 01:03:15;;;;;;;;;;;;;;;7.24;68.75;98833.13;8363598;28;19974;-70
2022/03/29 01:07:16;;;;;;;;;;;;;;;7.28;68.69;98828.75;8396576;28;20339;-70
2022/03/29 01:11:17;;;;;;;;;;;;;;;7.28;68.37;98823.38;8366307;28;19952;-70
2022/03/29 01:15:18;;;;;;;;;;;;;;;7.15;68.62;98825.72;8370865;28;20061;-70
2022/03/29 01:19:22;;;;;;;;;;;;;;;6.97;69.30;98809.66;8385194;28;20058;-70
2022/03/29 01:23:23;;;;;;;;;;;;;;;6.82;69.59;98810.66;8363623;28;19925;-70
2022/03/29 01:27:24;;;;;;;;;;;;;;;6.73;69.64;98796.31;8385162;28;20015;-70
2022/03/29 01:31:24;;;;;;;;;;;;;;;6.68;69.62;98802.53;8362410;28;19977;-70
2022/03/29 01:35:25;;;;;;;;;;;;;;;6.60;69.74;98805.09;8390362;28;20039;-69
2022/03/29 01:39:26;;;;;;;;;;;;;;;6.55;69.71;98810.53;8391089;28;20098;-70
2022/03/29 01:43:27;;;;;;;;;;;;;;;6.53;70.43;98826.09;8389645;28;20013;-70
2022/03/29 01:47:28;;;;;;;;;;;;;;;6.47;70.18;98813.84;8381900;28;19974;-70
2022/03/29 01:51:29;;;;;;;;;;;;;;;6.43;70.20;98823.56;8366971;28;19967;-70
2022/03/29 01:55:29;;;;;;;;;;;;;;;6.44;70.20;98819.78;8424730;28;19971;-70
2022/03/29 02:00:30;;;;;;;;;;;;;;;6.43;70.22;98807.47;8365583;28;20481;-70
2022/03/29 02:03:51;;;;;;;;;;;;;;;6.40;69.82;98808.81;8388626;28;20033;-70
2022/03/29 02:07:52;;;;;;;;;;;;;;;6.43;69.69;98796.75;8390610;28;19978;-70
2022/03/29 02:11:52;;;;;;;;;;;;;;;6.31;70.20;98784.53;8391738;28;20006;-70
2022/03/29 02:15:53;;;;;;;;;;;;;;;6.12;70.73;98791.78;8391302;28;20394;-70
2022/03/29 02:19:54;;;;;;;;;;;;;;;6.05;71.14;98785.94;8364137;28;19972;-70
2022/03/29 02:23:55;;;;;;;;;;;;;;;5.91;71.57;98779.69;8364434;28;20450;-70
2022/03/29 02:27:55;;;;;;;;;;;;;;;5.86;71.56;98785.09;8389552;28;20446;-70
2022/03/29 02:31:56;;;;;;;;;;;;;;;5.80;71.37;98778.97;8390214;28;20002;-70
2022/03/29 02:35:57;;;;;;;;;;;;;;;5.75;71.47;98770.19;8391906;28;20428;-70
2022/03/29 02:39:58;;;;;;;;;;;;;;;5.69;72.03;98760.63;8381200;28;19967;-70
2022/03/29 02:43:58;;;;;;;;;;;;;;;5.62;72.03;98760.94;8391713;28;19975;-70
2022/03/29 02:47:59;;;;;;;;;;;;;;;5.57;72.01;98757.53;8388980;28;20457;-69
2022/03/29 02:52:00;;;;;;;;;;;;;;;5.52;72.02;98751.16;8390144;28;20018;-70
2022/03/29 02:56:01;;;;;;;;;;;;;;;5.50;72.33;98747.94;8393020;28;19967;-70
2022/03/29 03:00:04;;;;;;;;;;;;;;;5.51;72.30;98733.47;8395999;28;20054;-70
2022/03/29 03:04:05;;;;;;;;;;;;;;;5.51;71.99;98728.13;8393015;28;20462;-69
2022/03/29 03:08:06;;;;;;;;;;;;;;;5.42;72.65;98735.19;8394050;28;20033;-71
2022/03/29 03:12:07;;;;;;;;;;;;;;;5.34;72.85;98730.44;8396732;28;19967;-70
2022/03/29 03:16:08;;;;;;;;;;;;;;;5.31;72.62;98728.34;8397010;28;20037;-70
2022/03/29 03:20:09;;;;;;;;;;;;;;;5.26;72.80;98719.56;8397056;28;19924;-70
2022/03/29 03:24:10;;;;;;;;;;;;;;;5.24;72.73;98721.72;8396373;28;19927;-70
2022/03/29 03:28:11;;;;;;;;;;;;;;;5.22;73.75;98724.69;8391885;28;20298;-71
2022/03/29 03:32:12;;;;;;;;;;;;;;;5.21;73.45;98733.78;8393642;28;19926;-70
2022/03/29 03:36:12;;;;;;;;;;;;;;;5.06;73.59;98731.25;8395213;28;19924;-69
2022/03/29 03:40:13;;;;;;;;;;;;;;;4.89;74.00;98728.19;8396992;28;20384;-69
2022/03/29 03:44:14;;;;;;;;;;;;;;;4.78;74.19;98732.03;8395428;28;19924;-70
2022/03/29 03:48:15;;;;;;;;;;;;;;;4.75;74.39;98737.94;8411253;28;19920;-70
2022/03/29 03:52:16;;;;;;;;;;;;;;;4.85;75.79;98740.53;8396920;28;19924;-70
2022/03/29 03:56:17;;;;;;;;;;;;;;;4.91;75.66;98736.75;8393898;28;19968;-70
2022/03/29 04:00:21;;;;;;;;;;;;;;;4.89;75.82;98744.25;8428196;28;19920;-70
2022/03/29 04:04:21;;;;;;;;;;;;;;;4.82;75.44;98741.09;8397597;28;20303;-70
2022/03/29 04:08:22;;;;;;;;;;;;;;;4.67;75.90;98745.47;8398097;28;19920;-69
2022/03/29 04:12:23;;;;;;;;;;;;;;;4.56;76.07;98741.28;8398788;28;20354;-70
2022/03/29 04:16:24;;;;;;;;;;;;;;;4.42;76.36;98743.00;8398298;28;19920;-69
2022/03/29 04:20:25;;;;;;;;;;;;;;;4.29;76.71;98738.25;8395650;28;19927;-70
2022/03/29 04:24:26;;;;;;;;;;;;;;;4.23;77.12;98723.31;8396434;28;19925;-70
2022/03/29 04:28:26;;;;;;;;;;;;;;;4.17;76.58;98740.47;8395528;28;20038;-70
2022/03/29 04:32:27;;;;;;;;;;;;;;;4.11;76.76;98736.22;8382572;28;19965;-69
2022/03/29 04:36:28;;;;;;;;;;;;;;;4.04;76.83;98731.16;8395833;28;19952;-70
2022/03/29 04:40:29;;;;;;;;;;;;;;;4.10;76.30;98729.28;8395824;28;19963;-70
2022/03/29 04:44:31;;;;;;;;;;;;;;;4.08;76.16;98731.41;8394066;28;19921;-69
2022/03/29 04:48:32;;;;;;;;;;;;;;;3.97;76.69;98729.84;8394630;28;20431;-69
2022/03/29 04:52:34;;;;;;;;;;;;;;;3.89;76.32;98733.13;8392432;28;19920;-69
2022/03/29 04:56:35;;;;;;;;;;;;;;;3.80;76.57;98725.69;8394820;28;19953;-70
2022/03/29 05:00:36;;;;;;;;;;;;;;;3.76;76.41;98729.94;8395592;28;19921;-69
2022/03/29 05:04:37;;;;;;;;;;;;;;;3.69;76.97;98740.16;8395650;28;19921;-69
2022/03/29 05:08:37;;;;;;;;;;;;;;;3.68;76.53;98738.53;8395526;28;19963;-69
2022/03/29 05:12:39;;;;;;;;;;;;;;;3.59;77.50;98740.19;8395324;28;19920;-69
2022/03/29 05:16:39;;;;;;;;;;;;;;;3.57;77.39;98747.66;8394977;28;20015;-69
2022/03/29 05:20:41;;;;;;;;;;;;;;;3.64;76.97;98748.19;8394961;28;19920;-69
2022/03/29 05:24:41;;;;;;;;;;;;;;;3.71;76.53;98754.00;8395265;28;19928;-69
2022/03/29 05:28:42;;;;;;;;;;;;;;;3.81;76.12;98743.28;8395010;28;19969;-70
2022/03/29 05:32:43;;;;;;;;;;;;;;;3.87;76.24;98740.59;8395139;28;19947;-69
2022/03/29 05:36:46;;;;;;;;;;;;;;;4.03;76.22;98744.78;8392365;28;19920;-69
2022/03/29 05:40:47;;;;;;;;;;;;;;;4.37;75.59;98745.69;8394957;28;19921;-70
2022/03/29 05:44:48;;;;;;;;;;;;;;;4.83;77.67;98742.69;8394848;28;19927;-69
2022/03/29 05:48:52;;;;;;;;;;;;;;;5.11;77.73;98749.94;8394502;28;19924;-70
2022/03/29 05:52:53;;;;;;;;;;;;;;;5.35;78.24;98761.50;8394575;28;19921;-70
2022/03/29 05:56:54;;;;;;;;;;;;;;;5.48;77.95;98760.84;8393578;28;19996;-70
2022/03/29 06:00:55;;;;;;;;;;;;;;;5.67;77.59;98757.41;8395004;28;20023;-70
2022/03/29 06:04:55;;;;;;;;;;;;;;;5.85;77.08;98749.44;8394462;28;20045;-70
2022/03/29 06:08:57;;;;;;;;;;;;;;;6.02;76.79;98759.72;8394656;28;19973;-70
2022/03/29 06:12:58;;;;;;;;;;;;;;;6.18;76.39;98769.19;8394259;28;19986;-70
2022/03/29 06:17:00;;;;;;;;;;;;;;;6.38;76.12;98756.56;8393934;28;19920;-69
2022/03/29 06:21:01;;;;;;;;;;;;;;;6.47;75.66;98766.34;8394253;28;20019;-69
2022/03/29 06:25:02;;;;;;;;;;;;;;;6.58;75.16;98767.81;8394075;28;19943;-69
2022/03/29 06:29:03;;;;;;;;;;;;;;;6.62;75.14;98768.03;8395927;28;20014;-69
2022/03/29 06:33:04;;;;;;;;;;;;;;;6.70;74.71;98770.06;8399015;28;19920;-69
2022/03/29 06:37:04;;;;;;;;;;;;;;;6.71;74.68;98777.03;8397650;28;20376;-70
2022/03/29 06:41:05;;;;;;;;;;;;;;;6.76;74.75;98785.00;8400126;28;19944;-70
2022/03/29 06:45:07;;;;;;;;;;;;;;;6.77;74.52;98781.22;8399648;28;19952;-70
2022/03/29 06:49:08;;;;;;;;;;;;;;;6.86;74.45;98779.47;8399971;28;19978;-70
2022/03/29 06:53:08;;;;;;;;;;;;;;;6.93;73.75;98787.94;8399835;28;19973;-69
2022/03/29 06:57:09;;;;;;;;;;;;;;;6.96;73.98;98779.31;8399418;28;19924;-70
2022/03/29 07:01:10;;;;;;;;;;;;;;;6.88;74.14;98782.66;8397397;28;20058;-69
2022/03/29 07:05:12;;;;;;;;;;;;;;;7.04;73.95;98792.06;8399911;28;20231;-71
2022/03/29 07:13:32;;;;;;;;;;;;;;;7.32;73.12;98784.09;8398988;28;19931;-70
2022/03/29 07:17:33;;;;;;;;;;;;;;;7.44;72.45;98781.75;8398903;28;20433;-69
2022/03/29 07:21:34;;;;;;;;;;;;;;;7.43;72.37;98782.84;8398874;28;19959;-70
2022/03/29 07:25:36;;;;;;;;;;;;;;;7.51;72.07;98784.81;8398856;28;19926;-69
2022/03/29 07:29:38;;;;;;;;;;;;;;;7.51;72.32;98784.81;8398339;28;20349;-69
2022/03/29 07:33:39;;;;;;;;;;;;;;;7.62;72.04;98780.84;8397043;28;19931;-69
2022/03/29 07:37:40;;;;;;;;;;;;;;;7.78;70.92;98778.69;8398265;28;20376;-69
2022/03/29 07:41:41;;;;;;;;;;;;;;;7.82;71.06;98777.81;8398095;28;20395;-70
2022/03/29 07:45:42;;;;;;;;;;;;;;;7.82;70.84;98780.50;8398166;28;19927;-70
2022/03/29 07:49:43;;;;;;;;;;;;;;;7.80;71.07;98782.69;8397914;28;19948;-71
2022/03/29 07:53:47;;;;;;;;;;;;;;;7.93;70.40;98776.50;8395584;28;19927;-70
2022/03/29 07:57:47;;;;;;;;;;;;;;;7.89;70.39;98775.50;8398005;28;20458;-70
2022/03/29 08:01:48;;;;;;;;;;;;;;;7.86;70.39;98772.63;8397983;28;19927;-70
2022/03/29 08:05:49;;;;;;;;;;;;;;;7.91;70.39;98767.94;8397766;28;19931;-70
2022/03/29 08:09:50;;;;;;;;;;;;;;;8.00;69.61;98766.16;8397026;28;20066;-70
2022/03/29 08:13:51;;;;;;;;;;;;;;;8.16;69.63;98763.13;8378119;28;19951;-70
2022/03/29 08:17:53;;;;;;;;;;;;;;;8.20;68.62;98758.75;8396693;28;20505;-70
2022/03/29 08:21:54;;;;;;;;;;;;;;;8.33;68.65;98764.16;8394911;28;20015;-70
2022/03/29 08:25:55;;;;;;;;;;;;;;;8.38;68.51;98760.56;8378025;28;19973;-70
2022/03/29 08:29:56;;;;;;;;;;;;;;;8.33;68.60;98768.72;8396743;28;20387;-70
2022/03/29 08:33:56;;;;;;;;;;;;;;;8.32;68.66;98762.56;8411262;28;20427;-70
2022/03/29 08:37:57;;;;;;;;;;;;;;;8.21;68.73;98754.97;8396185;28;20015;-70
2022/03/29 08:42:12;;;;;;;;;;;;;;;8.42;68.57;98745.38;8396846;28;20387;-70
2022/03/29 08:46:12;;;;;;;;;;;;;;;8.44;67.94;98748.59;8393749;28;20372;-70
2022/03/29 08:50:14;;;;;;;;;;;;;;;8.52;67.84;98747.84;8395816;28;19927;-70
2022/03/29 08:54:15;;;;;;;;;;;;;;;8.63;67.50;98751.91;8395124;28;19965;-70
2022/03/29 08:58:17;;;;;;;;;;;;;;;8.58;67.04;98749.31;8395876;28;19920;-69
2022/03/29 09:02:18;;;;;;;;;;;;;;;8.68;66.54;98759.88;8395864;28;19946;-69
2022/03/29 09:06:19;;;;;;;;;;;;;;;8.66;65.99;98756.69;8395683;28;20315;-70
2022/03/29 09:10:21;;;;;;;;;;;;;;;8.72;65.38;98747.41;8395289;28;19973;-70
2022/03/29 09:14:22;;;;;;;;;;;;;;;8.70;65.74;98746.91;8395339;28;19924;-70
2022/03/29 09:18:23;;;;;;;;;;;;;;;8.65;65.72;98747.03;8395612;28;20365;-70
2022/03/29 09:22:37;;;;;;;;;;;;;;;8.71;65.81;98743.13;8394935;28;20345;-70
2022/03/29 09:26:41;;;;;;;;;;;;;;;8.62;66.06;98739.53;8394896;28;19921;-70
2022/03/29 09:30:43;;;;;;;;;;;;;;;8.57;65.78;98731.59;8394904;28;19920;-70
2022/03/29 09:34:44;;;;;;;;;;;;;;;8.56;66.27;98730.00;8394910;28;19921;-69
2022/03/29 09:38:47;;;;;;;;;;;;;;;8.65;66.08;98733.56;8393611;28;19920;-69
2022/03/29 09:43:06;;;;;;;;;;;;;;;8.64;65.99;98726.59;8394717;28;19928;-70
2022/03/29 09:47:09;;;;;;;;;;;;;;;8.80;66.14;98714.34;8394588;28;19950;-70
2022/03/29 09:51:10;;;;;;;;;;;;;;;8.90;65.53;98724.88;8394367;28;20011;-70
2022/03/29 09:55:20;;;;;;;;;;;;;;;9.08;65.11;98708.84;8394375;28;19943;-70
2022/03/29 09:59:21;;;;;;;;;;;;;;;9.24;64.53;98718.13;8394081;28;19964;-70
2022/03/29 10:03:23;;;;;;;;;;;;;;;9.20;63.55;98712.53;8409540;28;19920;-70
2022/03/29 10:07:24;;;;;;;;;;;;;;;8.95;64.04;98709.69;8399985;28;19950;-70
2022/03/29 10:11:27;;;;;;;;;;;;;;;8.76;64.77;98708.00;8382048;28;19920;-70
2022/03/29 10:15:27;;;;;;;;;;;;;;;8.60;65.47;98704.06;8399677;28;19927;-71
2022/03/29 10:19:28;;;;;;;;;;;;;;;8.70;65.95;98698.44;8400482;28;20026;-70
2022/03/29 10:23:29;;;;;;;;;;;;;;;8.95;65.36;98698.91;8400787;28;19920;-70
2022/03/29 10:27:30;;;;;;;;;;;;;;;8.92;64.46;98699.53;8398964;28;19952;-70
2022/03/29 10:31:34;;;;;;;;;;;;;;;8.83;64.49;98702.97;8400259;28;19928;-70
2022/03/29 10:35:35;;;;;;;;;;;;;;;8.74;64.52;98699.41;8414560;28;19981;-70
2022/03/29 10:39:42;;;;;;;;;;;;;;;8.99;63.68;98697.22;8398911;28;19920;-70
2022/03/29 10:44:08;;;;;;;;;;;;;;;9.03;63.56;98690.09;8414391;28;19950;-71
2022/03/29 10:48:11;;;;;;;;;;;;;;;9.24;62.45;98691.16;8329732;28;19925;-70
2022/03/29 10:52:21;;;;;;;;;;;;;;;9.55;61.84;98675.78;8329587;28;19971;-70
2022/03/29 10:56:24;;;;;;;;;;;;;;;9.78;60.39;98683.78;8329271;28;19967;-70
2022/03/29 11:00:31;;;;;;;;;;;;;;;9.54;60.01;98684.97;8345173;28;19963;-71
2022/03/29 11:04:31;;;;;;;;;;;;;;;9.35;60.94;98687.09;8345066;28;19921;-70
2022/03/29 11:08:36;;;;;;;;;;;;;;;9.49;60.92;98677.00;8329024;28;19928;-70
2022/03/29 11:12:45;;;;;;;;;;;;;;;9.75;59.46;98680.59;8328997;28;19971;-70
2022/03/29 11:16:46;;;;;;;;;;;;;;;9.89;58.85;98671.56;8328503;28;19928;-70
2022/03/29 11:20:59;;;;;;;;;;;;;;;9.87;58.92;98671.09;8328679;28;19944;-70
2022/03/29 11:25:00;;;;;;;;;;;;;;;9.91;58.40;98666.66;8375591;28;19931;-70
2022/03/29 11:29:02;;;;;;;;;;;;;;;9.82;58.31;98657.75;8398774;28;20011;-70
2022/03/29 11:33:03;;;;;;;;;;;;;;;9.73;58.39;98650.44;8398344;28;20319;-70
2022/03/29 11:37:04;;;;;;;;;;;;;;;9.77;58.93;98655.22;8395877;28;20039;-70
2022/03/29 11:41:05;;;;;;;;;;;;;;;9.68;58.43;98647.88;8394353;28;19928;-70
2022/03/29 11:45:06;;;;;;;;;;;;;;;9.63;58.27;98645.31;8398118;28;19920;-70
2022/03/29 11:49:07;;;;;;;;;;;;;;;9.60;58.45;98645.97;8397701;28;20375;-70
2022/03/29 11:53:23;;;;;;;;;;;;;;;9.51;57.92;98636.28;8397579;28;19921;-70
2022/03/29 11:57:26;;;;;;;;;;;;;;;9.46;58.24;98629.13;8397086;28;20376;-70
2022/03/29 12:01:31;;;;;;;;;;;;;;;9.59;57.99;98627.41;8395093;28;19943;-70
2022/03/29 12:05:32;;;;;;;;;;;;;;;9.62;57.85;98621.41;8394742;28;19929;-70
2022/03/29 12:09:33;;;;;;;;;;;;;;;9.71;57.57;98609.53;8396035;28;19973;-70
2022/03/29 12:13:34;;;;;;;;;;;;;;;9.73;57.55;98607.28;8395725;28;20022;-70
2022/03/29 12:17:34;;;;;;;;;;;;;;;10.06;56.88;98598.75;8429856;28;20015;-69
2022/03/29 12:21:35;;;;;;;;;;;;;;;10.26;56.07;98608.94;8396902;28;19920;-70
2022/03/29 12:25:36;;;;;;;;;;;;;;;9.99;56.56;98599.22;8377558;28;19975;-70
2022/03/29 12:29:41;;;;;;;;;;;;;;;9.83;57.32;98589.22;8429133;28;20302;-70
2022/03/29 12:33:42;;;;;;;;;;;;;;;9.75;55.96;98594.28;8396578;28;19920;-70
2022/03/29 12:38:00;;;;;;;;;;;;;;;9.86;57.12;98593.97;8427055;28;19920;-70
2022/03/29 12:42:01;;;;;;;;;;;;;;;9.72;56.74;98589.53;8396240;28;20060;-70
2022/03/29 12:46:05;;;;;;;;;;;;;;;9.48;57.62;98589.16;8394575;28;19921;-70
2022/03/29 12:50:06;;;;;;;;;;;;;;;9.34;58.25;98588.50;8395738;28;19931;-70
2022/03/29 12:54:08;;;;;;;;;;;;;;;9.38;58.64;98581.38;8396171;28;19928;-70
2022/03/29 12:58:09;;;;;;;;;;;;;;;9.39;58.21;98580.28;8395966;28;19974;-70
2022/03/29 13:02:14;;;;;;;;;;;;;;;9.69;57.42;98573.97;8395648;28;19928;-70
2022/03/29 13:06:15;;;;;;;;;;;;;;;10.00;56.84;98573.03;8360294;28;19921;-70
2022/03/29 13:10:34;;;;;;;;;;;;;;;10.03;56.14;98567.03;8394599;28;20473;-70
2022/03/29 13:14:36;;;;;;;;;;;;;;;9.99;55.31;98566.09;8384859;28;20326;-70
2022/03/29 13:18:38;;;;;;;;;;;;;;;9.98;55.88;98565.28;8390436;28;20380;-69
2022/03/29 13:22:45;;;;;;;;;;;;;;;10.03;55.93;98556.22;8393689;28;19931;-70
2022/03/29 13:26:50;;;;;;;;;;;;;;;10.10;55.08;98556.53;8394434;28;19924;-70
2022/03/29 13:30:50;;;;;;;;;;;;;;;9.89;56.58;98544.78;8394719;28;19927;-70
2022/03/29 13:34:51;;;;;;;;;;;;;;;9.70;57.62;98543.22;8394928;28;20015;-70
2022/03/29 13:38:54;;;;;;;;;;;;;;;9.58;58.39;98534.94;8394518;28;19920;-71
2022/03/29 13:42:55;;;;;;;;;;;;;;;9.69;58.01;98525.44;8393675;28;20287;-70
2022/03/29 13:46:56;;;;;;;;;;;;;;;9.74;58.20;98527.97;8394326;28;19928;-70
2022/03/29 13:50:57;;;;;;;;;;;;;;;9.71;58.13;98520.53;8356334;28;19973;-70
2022/03/29 13:54:59;;;;;;;;;;;;;;;9.39;58.32;98507.50;8392625;28;20522;-71
2022/03/29 13:59:03;;;;;;;;;;;;;;;9.35;58.48;98503.84;8393853;28;20065;-70
2022/03/29 14:03:08;;;;;;;;;;;;;;;9.41;58.33;98513.34;8391213;28;19927;-70
2022/03/29 14:07:09;;;;;;;;;;;;;;;9.44;58.25;98496.56;8393571;28;19942;-70
2022/03/29 14:11:09;;;;;;;;;;;;;;;9.28;59.00;98495.44;8393112;28;20023;-70
2022/03/29 14:15:10;;;;;;;;;;;;;;;9.26;59.06;98489.56;8393224;28;19927;-69
2022/03/29 14:19:11;;;;;;;;;;;;;;;9.36;58.72;98494.66;8391371;28;20015;-69
2022/03/29 14:23:12;;;;;;;;;;;;;;;9.22;59.15;98494.78;8394010;28;19920;-69
2022/03/29 14:27:14;;;;;;;;;;;;;;;9.27;59.30;98486.56;8393639;28;20395;-70
2022/03/29 14:31:15;;;;;;;;;;;;;;;9.20;59.55;98485.47;8392941;28;20003;-70
2022/03/29 14:35:15;;;;;;;;;;;;;;;9.56;59.42;98488.66;8391201;28;20425;-70
2022/03/29 14:39:16;;;;;;;;;;;;;;;9.95;58.78;98489.59;8393194;28;20284;-70
2022/03/29 14:43:17;;;;;;;;;;;;;;;9.95;58.49;98479.59;8392860;28;19928;-70
2022/03/29 14:47:18;;;;;;;;;;;;;;;10.06;58.13;98490.84;8393575;28;19960;-70
2022/03/29 14:51:20;;;;;;;;;;;;;;;10.40;57.84;98490.00;8395382;28;19955;-70
2022/03/29 14:55:23;;;;;;;;;;;;;;;11.34;55.57;98476.03;8377572;28;20407;-70
2022/03/29 14:59:24;;;;;;;;;;;;;;;11.84;52.49;98472.50;8395861;28;19928;-71
2022/03/29 15:03:25;;;;;;;;;;;;;;;12.05;52.49;98472.47;8385901;28;20303;-70
2022/03/29 15:07:26;;;;;;;;;;;;;;;11.62;51.67;98470.13;8391719;28;20004;-70
2022/03/29 15:11:27;;;;;;;;;;;;;;;11.36;52.26;98463.00;8378250;28;19921;-71
2022/03/29 15:15:28;;;;;;;;;;;;;;;11.77;51.79;98458.72;8397627;28;19990;-71
2022/03/29 15:19:29;;;;;;;;;;;;;;;11.60;52.00;98461.53;8396484;28;20442;-71
2022/03/29 15:23:30;;;;;;;;;;;;;;;11.02;53.09;98457.81;8412633;28;20365;-70
2022/03/29 15:27:31;;;;;;;;;;;;;;;10.66;53.91;98460.22;8379166;28;19920;-71
2022/03/29 15:31:32;;;;;;;;;;;;;;;10.24;55.30;98460.06;8397420;28;20352;-70
2022/03/29 15:35:33;;;;;;;;;;;;;;;9.87;56.01;98455.34;8377927;28;20069;-71
2022/03/29 15:39:38;;;;;;;;;;;;;;;9.75;56.65;98454.06;8394136;28;19935;-70
2022/03/29 15:43:40;;;;;;;;;;;;;;;9.66;57.17;98445.22;8389161;28;19921;-71
2022/03/29 15:47:40;;;;;;;;;;;;;;;9.66;57.17;98445.22;8393107;28;19920;-70
2022/03/29 15:51:42;;;;;;;;;;;;;;;9.60;57.08;98451.88;8398269;28;19978;-69
2022/03/29 15:55:46;;;;;;;;;;;;;;;9.28;57.72;98436.16;8395480;28;19948;-70
2022/03/29 15:59:47;;;;;;;;;;;;;;;9.13;58.38;98437.44;8397141;28;19924;-69
2022/03/29 16:03:48;;;;;;;;;;;;;;;9.01;58.50;98433.75;8412144;28;19926;-69
2022/03/29 16:07:49;;;;;;;;;;;;;;;8.87;59.08;98429.31;8395376;28;19951;-70
2022/03/29 16:11:51;;;;;;;;;;;;;;;8.74;59.39;98419.44;8392389;28;19920;-70
2022/03/29 16:15:52;;;;;;;;;;;;;;;8.60;60.18;98421.47;8396933;28;20324;-70
2022/03/29 16:19:53;;;;;;;;;;;;;;;8.46;60.47;98423.44;8393864;28;19960;-69
2022/03/29 16:23:55;;;;;;;;;;;;;;;8.33;60.87;98418.97;8369658;28;19920;-70
2022/03/29 16:27:57;;;;;;;;;;;;;;;8.37;60.97;98417.25;8395084;28;19950;-70
2022/03/29 16:31:58;;;;;;;;;;;;;;;8.34;61.17;98420.56;8396108;28;20371;-70
2022/03/29 16:35:58;;;;;;;;;;;;;;;8.21;61.60;98416.03;8389127;28;19958;-71
2022/03/29 16:39:59;;;;;;;;;;;;;;;8.01;62.02;98418.16;8383144;28;19931;-70
2022/03/29 16:44:01;;;;;;;;;;;;;;;7.86;62.64;98415.88;8393743;28;19928;-70
2022/03/29 16:48:02;;;;;;;;;;;;;;;7.70;63.31;98419.25;8396222;28;19924;-70
2022/03/29 16:52:03;;;;;;;;;;;;;;;7.50;64.49;98423.22;8394531;28;20028;-70
2022/03/29 16:56:05;;;;;;;;;;;;;;;7.29;65.08;98417.53;8390418;28;19974;-69
2022/03/29 17:00:06;;;;;;;;;;;;;;;7.06;66.09;98414.00;8391108;28;20438;-70
2022/03/29 17:04:07;;;;;;;;;;;;;;;6.85;66.33;98412.84;8391650;28;19920;-70
2022/03/29 17:08:07;;;;;;;;;;;;;;;6.64;66.68;98406.31;8395124;28;20398;-70
2022/03/29 17:12:08;;;;;;;;;;;;;;;6.46;67.05;98404.53;8393918;28;20346;-70
2022/03/29 17:16:11;;;;;;;;;;;;;;;6.23;67.64;98407.13;8394274;28;20346;-70
2022/03/29 17:20:13;;;;;;;;;;;;;;;6.03;68.29;98401.34;8393559;28;20368;-69
2022/03/29 17:24:15;;;;;;;;;;;;;;;5.84;68.94;98404.03;8394917;28;20008;-70
2022/03/29 17:28:16;;;;;;;;;;;;;;;5.66;68.89;98396.88;8392201;28;20302;-69
2022/03/29 17:32:18;;;;;;;;;;;;;;;5.47;69.33;98399.56;8395328;28;19927;-70
2022/03/29 17:36:19;;;;;;;;;;;;;;;5.30;69.61;98400.09;8393216;28;19927;-70
2022/03/29 17:40:20;;;;;;;;;;;;;;;5.17;69.81;98395.50;8393720;28;19925;-70
2022/03/29 17:44:21;;;;;;;;;;;;;;;5.07;69.83;98411.69;8391904;28;20289;-70
2022/03/29 17:48:22;;;;;;;;;;;;;;;4.91;70.04;98402.28;8392888;28;19927;-70
2022/03/29 17:52:23;;;;;;;;;;;;;;;4.81;69.93;98402.44;8394181;28;20447;-69
2022/03/29 17:56:24;;;;;;;;;;;;;;;4.70;70.04;98409.00;8393788;28;19973;-69
2022/03/29 18:00:25;;;;;;;;;;;;;;;4.60;70.40;98413.38;8380007;28;20368;-70
2022/03/29 18:04:26;;;;;;;;;;;;;;;4.51;71.06;98409.75;8393172;28;19929;-69
2022/03/29 18:08:27;;;;;;;;;;;;;;;4.52;71.01;98406.00;8394170;28;19921;-69
2022/03/29 18:12:28;;;;;;;;;;;;;;;4.60;70.75;98412.59;8394242;28;19920;-69
2022/03/29 18:16:29;;;;;;;;;;;;;;;4.49;71.07;98395.09;8394254;28;19999;-70
2022/03/29 18:20:30;;;;;;;;;;;;;;;4.45;70.87;98400.19;8394010;28;19931;-69
2022/03/29 18:24:31;;;;;;;;;;;;;;;4.53;72.04;98407.59;8395468;28;19920;-69
2022/03/29 18:28:32;;;;;;;;;;;;;;;4.54;71.79;98398.50;8400495;28;20418;-70
2022/03/29 18:32:33;;;;;;;;;;;;;;;4.54;71.67;98395.81;8400589;28;19920;-69
2022/03/29 18:36:34;;;;;;;;;;;;;;;4.58;71.92;98399.50;8398873;28;19921;-70
2022/03/29 18:40:35;;;;;;;;;;;;;;;4.56;71.39;98390.97;8398875;28;19943;-69
2022/03/29 18:44:37;;;;;;;;;;;;;;;4.46;71.71;98396.44;8399580;28;20299;-70
2022/03/29 18:48:39;;;;;;;;;;;;;;;4.44;71.42;98393.25;8397694;28;20273;-69
2022/03/29 18:52:44;;;;;;;;;;;;;;;4.49;71.29;98401.22;8393443;28;19931;-69
2022/03/29 18:56:49;;;;;;;;;;;;;;;4.60;71.18;98402.66;8389377;28;20006;-69
2022/03/29 19:00:52;;;;;;;;;;;;;;;4.70;71.44;98406.31;8397203;28;19920;-70
2022/03/29 19:04:54;;;;;;;;;;;;;;;4.73;71.25;98406.53;8416736;28;20066;-70
2022/03/29 19:08:56;;;;;;;;;;;;;;;4.65;72.87;98389.22;8398433;28;19920;-69
2022/03/29 19:12:59;;;;;;;;;;;;;;;4.74;72.96;98401.97;8412903;28;20391;-70
2022/03/29 19:17:03;;;;;;;;;;;;;;;4.74;73.49;98401.97;8428476;28;19928;-70
2022/03/29 19:21:21;;;;;;;;;;;;;;;4.87;73.55;98401.25;8426318;28;19965;-69
2022/03/29 19:25:22;;;;;;;;;;;;;;;4.95;73.67;98403.31;8409241;28;19927;-69
2022/03/29 19:29:24;;;;;;;;;;;;;;;5.01;73.60;98402.16;8426924;28;20392;-69
2022/03/29 19:33:25;;;;;;;;;;;;;;;5.00;73.42;98389.84;8408014;28;19962;-69
2022/03/29 19:37:30;;;;;;;;;;;;;;;5.13;74.42;98394.47;8422978;28;19924;-69
2022/03/29 19:41:31;;;;;;;;;;;;;;;5.20;74.22;98389.56;8426254;28;19947;-70
2022/03/29 19:45:32;;;;;;;;;;;;;;;5.17;74.22;98400.84;8426226;28;19927;-69
2022/03/29 19:49:34;;;;;;;;;;;;;;;5.19;74.80;98390.63;8424903;28;19927;-69
2022/03/29 19:53:38;;;;;;;;;;;;;;;5.21;74.54;98393.81;8393566;28;19920;-69
2022/03/29 19:57:40;;;;;;;;;;;;;;;5.15;74.64;98394.97;8359813;28;19922;-69
2022/03/29 20:01:43;;;;;;;;;;;;;;;5.10;74.65;98389.69;8396530;28;20014;-69
2022/03/29 20:05:50;;;;;;;;;;;;;;;5.13;74.97;98386.44;8376169;28;19975;-70
2022/03/29 20:09:51;;;;;;;;;;;;;;;5.01;74.98;98396.81;8394068;28;19921;-70
2022/03/29 20:13:52;;;;;;;;;;;;;;;4.99;74.66;98382.91;8395171;28;20325;-69
2022/03/29 20:17:54;;;;;;;;;;;;;;;4.98;74.80;98386.66;8396315;28;19924;-69
2022/03/29 20:21:55;;;;;;;;;;;;;;;4.92;74.81;98371.75;8396242;28;20283;-70
2022/03/29 20:25:58;;;;;;;;;;;;;;;4.90;74.85;98374.75;8393345;28;19964;-69
2022/03/29 20:30:02;;;;;;;;;;;;;;;4.87;75.11;98379.84;8395862;28;19920;-70
2022/03/29 20:34:05;;;;;;;;;;;;;;;4.84;74.82;98369.75;8395689;28;19950;-69
2022/03/29 20:38:08;;;;;;;;;;;;;;;4.79;75.05;98367.13;8394331;28;20043;-69
2022/03/29 20:42:10;;;;;;;;;;;;;;;4.76;75.54;98373.06;8395807;28;19954;-69
2022/03/29 20:46:13;;;;;;;;;;;;;;;4.76;75.63;98367.72;8394929;28;20188;-69
2022/03/29 20:50:15;;;;;;;;;;;;;;;4.82;75.63;98371.91;8394734;28;20292;-69
2022/03/29 20:54:18;;;;;;;;;;;;;;;4.89;75.72;98361.66;8394911;28;19920;-70
2022/03/29 20:58:20;;;;;;;;;;;;;;;4.98;75.83;98354.53;8394686;28;19951;-69
2022/03/29 21:02:21;;;;;;;;;;;;;;;4.98;76.01;98359.91;8394572;28;19939;-69
2022/03/29 21:06:22;;;;;;;;;;;;;;;4.97;75.86;98353.75;8395069;28;19921;-69
2022/03/29 21:10:23;;;;;;;;;;;;;;;4.95;76.18;98360.50;8394626;28;19931;-70
2022/03/29 21:14:24;;;;;;;;;;;;;;;5.01;76.35;98353.97;8394417;28;20007;-69
2022/03/29 21:18:25;;;;;;;;;;;;;;;5.22;75.93;98355.25;8394006;28;19920;-69